Time;durP1;ratioP1;P1;durP2;ratioP2;P2;SDS_P1;SDS_P2;PMS_P1;PMS_P2;Temp;Humidity;BMP_temperature;BMP_pressure;BME280_temperature;BME280_humidity;BME280_pressure;Samples;Min_cycle;Max_cycle;Signal;HPM_P1;HPM_P2
2023/04/30 00:01:20;;;;;;;;;;;;;;;9.78;76.64;94915.09;5093138;28;1065;-56
2023/04/30 00:03:46;;;;;;;;;;;;;;;9.73;76.93;94917.41;5093203;28;1097;-56
2023/04/30 00:06:12;;;;;;;;;;;;;;;9.81;76.68;94917.47;5093241;28;1007;-56
2023/04/30 00:08:38;;;;;;;;;;;;;;;9.79;76.41;94916.78;5093543;28;1905;-56
2023/04/30 00:11:04;;;;;;;;;;;;;;;9.64;77.42;94910.41;5092900;28;1194;-56
2023/04/30 00:13:30;;;;;;;;;;;;;;;9.31;78.45;94916.41;5093005;28;1611;-56
2023/04/30 00:15:56;;;;;;;;;;;;;;;9.15;78.89;94911.00;5092958;28;1080;-56
2023/04/30 00:18:22;;;;;;;;;;;;;;;9.15;78.44;94917.16;5093319;28;1063;-56
2023/04/30 00:20:50;;;;;;;;;;;;;;;9.22;78.44;94920.06;5093415;28;978;-56
2023/04/30 00:23:16;;;;;;;;;;;;;;;9.35;77.78;94915.13;5093032;28;1107;-56
2023/04/30 00:25:42;;;;;;;;;;;;;;;9.42;77.17;94914.47;5093085;28;1009;-55
2023/04/30 00:28:08;;;;;;;;;;;;;;;9.44;77.11;94913.31;5093082;28;1992;-56
2023/04/30 00:30:34;;;;;;;;;;;;;;;9.37;77.42;94906.94;5092794;28;989;-56
2023/04/30 00:33:00;;;;;;;;;;;;;;;9.47;76.52;94910.31;5092662;28;1233;-55
2023/04/30 00:35:26;;;;;;;;;;;;;;;9.47;76.47;94915.66;5092827;28;1968;-56
2023/04/30 00:37:52;;;;;;;;;;;;;;;9.49;76.61;94918.19;5093015;28;1137;-56
2023/04/30 00:40:19;;;;;;;;;;;;;;;9.46;76.56;94916.66;5092493;28;1120;-56
2023/04/30 00:42:45;;;;;;;;;;;;;;;9.54;76.54;94918.50;5092800;28;1084;-56
2023/04/30 00:45:11;;;;;;;;;;;;;;;9.51;76.63;94914.34;5092701;28;997;-56
2023/04/30 00:47:37;;;;;;;;;;;;;;;9.44;76.98;94913.31;5092682;28;1910;-55
2023/04/30 00:50:03;;;;;;;;;;;;;;;9.44;77.18;94913.31;5092659;28;1056;-56
2023/04/30 00:52:29;;;;;;;;;;;;;;;9.29;77.99;94917.56;5092735;28;1108;-56
2023/04/30 00:54:55;;;;;;;;;;;;;;;9.10;78.40;94916.78;5091876;28;1043;-56
2023/04/30 00:57:22;;;;;;;;;;;;;;;9.02;79.30;94914.09;5091649;28;977;-56
2023/04/30 00:59:48;;;;;;;;;;;;;;;9.22;78.50;94917.38;5092734;28;1041;-56
2023/04/30 01:02:14;;;;;;;;;;;;;;;9.40;78.45;94919.13;5092611;28;1048;-56
2023/04/30 01:04:40;;;;;;;;;;;;;;;9.48;78.02;94914.66;5092747;28;1058;-56
2023/04/30 01:07:06;;;;;;;;;;;;;;;9.31;77.93;94918.25;5092823;28;1991;-55
2023/04/30 01:09:32;;;;;;;;;;;;;;;9.30;78.17;94912.09;5092829;28;1078;-56
2023/04/30 01:12:16;;;;;;;;;;;;;;;9.51;77.75;94911.69;5091628;28;1070;-56
2023/04/30 01:15:03;;;;;;;;;;;;;;;9.65;76.81;94909.38;5092472;28;1160;-56
2023/04/30 01:17:35;;;;;;;;;;;;;;;9.84;76.79;94909.13;5092540;28;1281;-56
2023/04/30 01:20:02;;;;;;;;;;;;;;;9.92;76.04;94911.81;5092758;28;1015;-55
2023/04/30 01:22:28;;;;;;;;;;;;;;;9.95;76.85;94911.47;5092646;28;992;-56
2023/04/30 01:25:13;;;;;;;;;;;;;;;9.85;77.88;94912.63;5092558;28;965;-56
2023/04/30 01:27:45;;;;;;;;;;;;;;;9.69;77.90;94908.91;5092659;28;1902;-56
2023/04/30 01:30:12;;;;;;;;;;;;;;;9.60;78.26;94901.03;5092698;28;984;-56
2023/04/30 01:32:38;;;;;;;;;;;;;;;9.73;77.62;94899.59;5092557;28;1036;-56
2023/04/30 01:35:04;;;;;;;;;;;;;;;9.88;77.26;94902.44;5092587;28;1024;-55
2023/04/30 01:37:33;;;;;;;;;;;;;;;9.95;77.26;94903.47;5092410;28;965;-56
2023/04/30 01:40:12;;;;;;;;;;;;;;;9.94;77.65;94896.47;5092634;28;1047;-56
2023/04/30 01:42:47;;;;;;;;;;;;;;;9.87;78.67;94897.28;5092986;28;1152;-56
2023/04/30 01:45:19;;;;;;;;;;;;;;;9.81;78.52;94898.78;5096245;28;1006;-56
2023/04/30 01:47:49;;;;;;;;;;;;;;;9.74;78.98;94887.06;5095971;28;1997;-56
2023/04/30 01:50:24;;;;;;;;;;;;;;;9.72;79.23;94894.41;5095792;28;1045;-56
2023/04/30 01:52:57;;;;;;;;;;;;;;;9.69;79.62;94884.88;5096141;28;1013;-56
2023/04/30 01:55:27;;;;;;;;;;;;;;;9.59;79.75;94894.84;5095930;28;976;-56
2023/04/30 01:57:59;;;;;;;;;;;;;;;9.53;80.70;94887.50;5095911;28;948;-55
2023/04/30 02:00:27;;;;;;;;;;;;;;;9.54;80.08;94891.81;5096166;28;985;-56
2023/04/30 02:02:53;;;;;;;;;;;;;;;9.63;79.21;94898.03;5095706;28;1044;-56
2023/04/30 02:05:19;;;;;;;;;;;;;;;9.65;79.32;94896.03;5095888;28;1009;-56
2023/04/30 02:07:46;;;;;;;;;;;;;;;9.65;79.40;94893.38;5095565;28;2001;-56
2023/04/30 02:10:13;;;;;;;;;;;;;;;9.60;79.59;94893.88;5095597;28;1013;-56
2023/04/30 02:12:39;;;;;;;;;;;;;;;9.52;79.81;94892.00;5095431;28;1052;-56
2023/04/30 02:15:06;;;;;;;;;;;;;;;9.48;80.27;94895.97;5095277;28;1583;-56
2023/04/30 02:17:32;;;;;;;;;;;;;;;9.37;81.22;94898.91;5095339;28;981;-56
2023/04/30 02:19:58;;;;;;;;;;;;;;;9.34;80.79;94897.41;5095401;28;1057;-56
2023/04/30 02:22:24;;;;;;;;;;;;;;;9.34;81.03;94907.25;5095448;28;1039;-56
2023/04/30 02:24:54;;;;;;;;;;;;;;;9.24;81.44;94899.38;5095113;28;1045;-56
2023/04/30 02:27:20;;;;;;;;;;;;;;;9.32;80.45;94904.75;5095164;28;1909;-56
2023/04/30 02:29:47;;;;;;;;;;;;;;;9.35;80.59;94895.59;5095097;28;1037;-56
2023/04/30 02:32:13;;;;;;;;;;;;;;;9.40;80.29;94895.94;5095007;28;1090;-56
2023/04/30 02:34:40;;;;;;;;;;;;;;;9.35;81.01;94903.59;5095216;28;1071;-56
2023/04/30 02:37:06;;;;;;;;;;;;;;;9.32;81.45;94902.09;5095142;28;969;-55
2023/04/30 02:39:32;;;;;;;;;;;;;;;9.25;81.31;94906.38;5094806;28;1045;-56
2023/04/30 02:41:58;;;;;;;;;;;;;;;9.26;81.06;94899.19;5095218;28;1048;-55
2023/04/30 02:44:24;;;;;;;;;;;;;;;9.10;82.57;94903.47;5094801;28;1146;-56
2023/04/30 02:46:50;;;;;;;;;;;;;;;9.23;81.73;94907.53;5094681;28;1025;-56
2023/04/30 02:49:17;;;;;;;;;;;;;;;9.31;81.30;94908.41;5094864;28;1989;-56
2023/04/30 02:51:43;;;;;;;;;;;;;;;9.25;82.10;94913.56;5094708;28;1041;-56
2023/04/30 02:54:09;;;;;;;;;;;;;;;9.26;82.61;94910.72;5094138;28;1109;-56
2023/04/30 02:56:35;;;;;;;;;;;;;;;9.34;81.26;94907.25;5094822;28;1321;-56
2023/04/30 02:59:01;;;;;;;;;;;;;;;9.38;81.60;94906.78;5094604;28;1158;-56
2023/04/30 03:01:27;;;;;;;;;;;;;;;9.39;81.41;94910.31;5094469;28;1202;-56
2023/04/30 03:03:53;;;;;;;;;;;;;;;9.43;82.46;94919.66;5094778;28;1035;-56
2023/04/30 03:06:19;;;;;;;;;;;;;;;9.41;82.24;94910.97;5094380;28;1926;-56
2023/04/30 03:08:45;;;;;;;;;;;;;;;9.57;81.38;94912.88;5094619;28;1996;-56
2023/04/30 03:11:11;;;;;;;;;;;;;;;9.61;81.12;94914.22;5094531;28;1000;-56
2023/04/30 03:13:37;;;;;;;;;;;;;;;9.63;81.33;94919.41;5094280;28;1315;-56
2023/04/30 03:16:06;;;;;;;;;;;;;;;9.51;82.15;94911.69;5094258;28;1107;-56
2023/04/30 03:18:32;;;;;;;;;;;;;;;9.52;81.85;94917.84;5094169;28;1107;-56
2023/04/30 03:20:58;;;;;;;;;;;;;;;9.48;81.92;94920.00;5094138;28;1089;-56
2023/04/30 03:23:26;;;;;;;;;;;;;;;9.44;82.95;94929.31;5094223;28;985;-56
2023/04/30 03:25:52;;;;;;;;;;;;;;;9.45;83.02;94924.84;5092755;28;1068;-56
2023/04/30 03:28:18;;;;;;;;;;;;;;;9.49;82.09;94923.53;5094261;28;1905;-56
2023/04/30 03:30:44;;;;;;;;;;;;;;;9.51;82.26;94924.19;5094678;28;1225;-56
2023/04/30 03:33:10;;;;;;;;;;;;;;;9.48;83.06;94932.50;5093936;28;2072;-56
2023/04/30 03:35:36;;;;;;;;;;;;;;;9.37;82.81;94928.28;5094282;28;1024;-55
2023/04/30 03:38:02;;;;;;;;;;;;;;;9.30;83.57;94936.09;5094120;28;1039;-56
2023/04/30 03:40:28;;;;;;;;;;;;;;;9.18;84.10;94935.53;5093663;28;1069;-56
2023/04/30 03:42:54;;;;;;;;;;;;;;;9.19;84.20;94931.03;5093837;28;1096;-56
2023/04/30 03:45:20;;;;;;;;;;;;;;;9.19;84.23;94941.69;5093605;28;1084;-56
2023/04/30 03:47:47;;;;;;;;;;;;;;;9.27;83.87;94941.72;5093917;28;1909;-55
2023/04/30 03:50:13;;;;;;;;;;;;;;;9.36;83.66;94938.13;5093869;28;949;-56
2023/04/30 03:52:40;;;;;;;;;;;;;;;9.42;82.85;94950.00;5093805;28;993;-55
2023/04/30 03:55:06;;;;;;;;;;;;;;;9.46;82.68;94947.84;5093565;28;1075;-56
2023/04/30 03:57:32;;;;;;;;;;;;;;;9.54;82.12;94946.06;5093660;28;1055;-56
2023/04/30 03:59:58;;;;;;;;;;;;;;;9.55;82.49;94957.56;5093579;28;935;-56
2023/04/30 04:02:24;;;;;;;;;;;;;;;9.60;82.63;94957.94;5093611;28;1025;-56
2023/04/30 04:04:50;;;;;;;;;;;;;;;9.68;81.93;94957.97;5093279;28;1016;-56
2023/04/30 04:07:16;;;;;;;;;;;;;;;9.75;81.69;94950.13;5092795;28;1914;-56
2023/04/30 04:09:42;;;;;;;;;;;;;;;9.80;83.88;94950.50;5093645;28;1024;-56
2023/04/30 04:12:08;;;;;;;;;;;;;;;9.89;83.13;94962.88;5093595;28;1188;-56
2023/04/30 04:14:34;;;;;;;;;;;;;;;9.95;83.22;94959.56;5093097;28;1537;-55
2023/04/30 04:17:00;;;;;;;;;;;;;;;9.95;83.92;94970.25;5091916;28;1202;-55
2023/04/30 04:19:26;;;;;;;;;;;;;;;9.88;83.61;94966.53;5093172;28;1036;-54
2023/04/30 04:21:53;;;;;;;;;;;;;;;9.83;82.26;94952.84;5093372;28;1064;-55
2023/04/30 04:24:19;;;;;;;;;;;;;;;10.01;81.24;94963.41;5093175;28;1055;-55
2023/04/30 04:26:45;;;;;;;;;;;;;;;10.17;80.45;94968.00;5093445;28;1052;-55
2023/04/30 04:29:11;;;;;;;;;;;;;;;10.30;79.61;94971.06;5092833;28;1912;-55
2023/04/30 04:31:37;;;;;;;;;;;;;;;10.44;80.21;94982.09;5092907;28;1979;-55
2023/04/30 04:34:03;;;;;;;;;;;;;;;10.51;80.09;94975.09;5093207;28;1025;-55
2023/04/30 04:36:30;;;;;;;;;;;;;;;10.59;79.01;94983.13;5093037;28;1237;-56
2023/04/30 04:39:00;;;;;;;;;;;;;;;10.66;79.75;94973.44;5093201;28;1041;-56
2023/04/30 04:41:31;;;;;;;;;;;;;;;10.68;79.37;94986.63;5093241;28;1294;-56
2023/04/30 04:43:57;;;;;;;;;;;;;;;10.61;79.93;94988.31;5093244;28;989;-55
2023/04/30 04:46:24;;;;;;;;;;;;;;;10.72;80.08;94993.34;5092812;28;1100;-56
2023/04/30 04:48:53;;;;;;;;;;;;;;;10.73;80.74;94995.81;5093169;28;1914;-56
2023/04/30 04:51:19;;;;;;;;;;;;;;;10.59;81.54;94995.66;5092716;28;1053;-55
2023/04/30 04:53:45;;;;;;;;;;;;;;;10.62;82.46;94993.47;5092944;28;957;-55
2023/04/30 04:56:11;;;;;;;;;;;;;;;10.68;83.01;94992.84;5092936;28;1052;-56
2023/04/30 04:58:38;;;;;;;;;;;;;;;10.76;83.44;94989.31;5125440;28;1088;-56
2023/04/30 05:01:04;;;;;;;;;;;;;;;10.86;83.34;94998.00;5092715;28;1117;-56
2023/04/30 05:03:31;;;;;;;;;;;;;;;10.86;83.53;94986.50;5092896;28;1125;-56
2023/04/30 05:05:57;;;;;;;;;;;;;;;10.83;83.30;94989.47;5092850;28;985;-57
2023/04/30 05:08:23;;;;;;;;;;;;;;;10.92;83.64;94983.13;5092505;28;1909;-55
2023/04/30 05:10:49;;;;;;;;;;;;;;;11.00;82.84;94980.44;5092850;28;986;-51
2023/04/30 05:13:15;;;;;;;;;;;;;;;11.00;83.28;94990.31;5091115;28;1533;-57
2023/04/30 05:15:41;;;;;;;;;;;;;;;11.03;83.02;95000.69;5091330;28;1188;-56
2023/04/30 05:18:07;;;;;;;;;;;;;;;11.01;83.24;94992.84;5094644;28;1112;-56
2023/04/30 05:20:33;;;;;;;;;;;;;;;11.03;83.16;94998.03;5095546;28;865;-55
2023/04/30 05:23:00;;;;;;;;;;;;;;;11.14;83.54;94993.16;5096013;28;1039;-56
2023/04/30 05:25:26;;;;;;;;;;;;;;;11.11;84.58;94998.00;5096519;28;965;-56
2023/04/30 05:27:52;;;;;;;;;;;;;;;11.24;83.17;95002.84;5096209;28;1905;-56
2023/04/30 05:30:18;;;;;;;;;;;;;;;11.16;80.14;95000.19;5095847;28;1013;-57
2023/04/30 05:32:49;;;;;;;;;;;;;;;11.33;78.78;94997.31;5096375;28;1110;-57
2023/04/30 05:35:15;;;;;;;;;;;;;;;11.23;74.55;95003.84;5096277;28;1069;-57
2023/04/30 05:37:41;;;;;;;;;;;;;;;11.23;76.50;95006.53;5096076;28;1047;-56
2023/04/30 05:40:08;;;;;;;;;;;;;;;11.22;76.14;94996.84;5096075;28;1005;-57
2023/04/30 05:42:34;;;;;;;;;;;;;;;11.28;76.90;95009.53;5096260;28;1040;-57
2023/04/30 05:45:01;;;;;;;;;;;;;;;11.23;76.69;95009.19;5096277;28;989;-56
2023/04/30 05:47:27;;;;;;;;;;;;;;;11.26;76.38;95008.88;5095988;28;1995;-57
2023/04/30 05:49:53;;;;;;;;;;;;;;;11.31;74.85;95006.53;5096058;28;965;-56
2023/04/30 05:52:19;;;;;;;;;;;;;;;11.41;74.63;95009.84;5095778;28;1036;-55
2023/04/30 05:54:46;;;;;;;;;;;;;;;11.54;74.60;95009.34;5095811;28;1105;-56
2023/04/30 05:57:12;;;;;;;;;;;;;;;11.65;73.91;95010.84;5096020;28;1006;-56
2023/04/30 05:59:39;;;;;;;;;;;;;;;11.77;74.43;95013.97;5095822;28;1053;-56
2023/04/30 06:02:05;;;;;;;;;;;;;;;11.89;75.17;95009.91;5095667;28;1100;-56
2023/04/30 06:04:31;;;;;;;;;;;;;;;12.02;74.57;95012.91;5094501;28;996;-56
2023/04/30 06:06:58;;;;;;;;;;;;;;;12.13;73.70;95016.22;5095832;28;970;-55
2023/04/30 06:09:24;;;;;;;;;;;;;;;12.02;75.36;95017.44;5095359;28;1971;-54
2023/04/30 06:11:50;;;;;;;;;;;;;;;12.07;75.05;95020.44;5095515;28;1124;-55
2023/04/30 06:14:17;;;;;;;;;;;;;;;12.10;73.55;95025.44;5095465;28;1534;-55
2023/04/30 06:16:44;;;;;;;;;;;;;;;12.22;74.16;95023.22;5095308;28;1124;-54
2023/04/30 06:19:10;;;;;;;;;;;;;;;12.25;73.33;95015.66;5095688;28;961;-54
2023/04/30 06:21:36;;;;;;;;;;;;;;;12.29;72.29;95022.38;5095382;28;1036;-54
2023/04/30 06:24:02;;;;;;;;;;;;;;;12.47;73.99;95011.38;5095423;28;1009;-54
2023/04/30 06:26:28;;;;;;;;;;;;;;;12.67;73.52;95013.59;5095505;28;981;-57
2023/04/30 06:28:54;;;;;;;;;;;;;;;12.85;70.87;95013.31;5094257;28;1930;-57
2023/04/30 06:31:21;;;;;;;;;;;;;;;13.28;70.46;95017.16;5095434;28;1245;-57
2023/04/30 06:33:47;;;;;;;;;;;;;;;13.37;70.54;95017.13;5095427;28;1040;-57
2023/04/30 06:36:13;;;;;;;;;;;;;;;13.36;68.75;95020.84;5095237;28;1017;-56
2023/04/30 06:38:39;;;;;;;;;;;;;;;13.70;67.20;95022.16;5095108;28;1050;-57
2023/04/30 06:41:05;;;;;;;;;;;;;;;14.20;68.04;95024.13;5095600;28;1028;-57
2023/04/30 06:43:31;;;;;;;;;;;;;;;14.66;67.03;95022.25;5094033;28;1206;-57
2023/04/30 06:45:57;;;;;;;;;;;;;;;15.00;64.98;95032.34;5095193;28;1965;-54
2023/04/30 06:48:23;;;;;;;;;;;;;;;14.70;63.35;95023.53;5095215;28;2003;-57
2023/04/30 06:50:49;;;;;;;;;;;;;;;14.67;65.80;95024.75;5095147;28;1045;-56
2023/04/30 06:53:15;;;;;;;;;;;;;;;14.49;63.97;95024.28;5094843;28;1100;-57
2023/04/30 06:55:41;;;;;;;;;;;;;;;14.38;65.06;95028.28;5095260;28;996;-57
2023/04/30 06:58:07;;;;;;;;;;;;;;;14.49;64.91;95022.44;5094150;28;1323;-57
2023/04/30 07:00:34;;;;;;;;;;;;;;;14.60;65.29;95021.16;5095082;28;968;-56
2023/04/30 07:03:02;;;;;;;;;;;;;;;14.94;64.27;95020.50;5093764;28;1060;-57
2023/04/30 07:05:28;;;;;;;;;;;;;;;15.23;61.63;95030.31;5094638;28;1087;-55
2023/04/30 07:07:54;;;;;;;;;;;;;;;15.39;60.69;95021.13;5094637;28;1987;-55
2023/04/30 07:10:20;;;;;;;;;;;;;;;15.33;59.97;95023.78;5094044;28;1053;-56
2023/04/30 07:12:46;;;;;;;;;;;;;;;15.10;59.83;95032.88;5094527;28;1049;-55
2023/04/30 07:15:12;;;;;;;;;;;;;;;15.12;60.57;95025.44;5093088;28;1281;-54
2023/04/30 07:17:40;;;;;;;;;;;;;;;14.83;60.83;95029.06;5094723;28;965;-55
2023/04/30 07:20:07;;;;;;;;;;;;;;;14.82;62.09;95027.41;5094310;28;981;-55
2023/04/30 07:22:33;;;;;;;;;;;;;;;14.78;61.25;95026.94;5092996;28;1004;-55
2023/04/30 07:24:59;;;;;;;;;;;;;;;14.95;60.88;95026.69;5094625;28;1039;-55
2023/04/30 07:27:27;;;;;;;;;;;;;;;15.06;61.57;95022.66;5094119;28;1992;-56
2023/04/30 07:29:53;;;;;;;;;;;;;;;15.17;61.86;95020.28;5094558;28;981;-56
2023/04/30 07:32:19;;;;;;;;;;;;;;;15.32;60.51;95025.63;5094531;28;1056;-56
2023/04/30 07:34:45;;;;;;;;;;;;;;;15.34;59.74;95018.16;5094215;28;1037;-56
2023/04/30 07:37:12;;;;;;;;;;;;;;;15.47;60.79;95019.34;5094089;28;1047;-56
2023/04/30 07:39:38;;;;;;;;;;;;;;;15.29;61.06;95014.38;5094194;28;1034;-56
2023/04/30 07:42:05;;;;;;;;;;;;;;;15.34;61.89;95014.66;5094101;28;1097;-56
2023/04/30 07:44:31;;;;;;;;;;;;;;;15.40;62.00;95017.41;5094278;28;937;-56
2023/04/30 07:46:57;;;;;;;;;;;;;;;15.45;62.00;95029.47;5094073;28;1128;-56
2023/04/30 07:49:24;;;;;;;;;;;;;;;15.67;63.09;95028.41;5093764;28;1937;-56
2023/04/30 07:51:50;;;;;;;;;;;;;;;16.24;61.93;95025.69;5093652;28;967;-55
2023/04/30 07:54:16;;;;;;;;;;;;;;;16.77;60.21;95028.63;5090973;28;1330;-56
2023/04/30 07:56:42;;;;;;;;;;;;;;;17.97;57.53;95028.00;5094159;28;995;-54
2023/04/30 07:59:08;;;;;;;;;;;;;;;19.21;55.34;95035.06;5093990;28;989;-55
2023/04/30 08:01:34;;;;;;;;;;;;;;;19.59;51.18;95036.06;5093940;28;1136;-57
2023/04/30 08:04:01;;;;;;;;;;;;;;;19.68;50.06;95038.28;5093742;28;1041;-57
2023/04/30 08:06:27;;;;;;;;;;;;;;;20.06;51.39;95031.13;5093099;28;1154;-57
2023/04/30 08:08:53;;;;;;;;;;;;;;;20.40;50.56;95031.63;5087986;28;2941;-57
2023/04/30 08:11:20;;;;;;;;;;;;;;;20.81;50.31;95027.41;5073239;28;1058;-57
2023/04/30 08:17:08;;;;;;;;;;;;;;;20.92;46.53;95037.50;5077087;28;1334;-57
2023/04/30 08:19:35;;;;;;;;;;;;;;;20.85;47.55;95034.06;5092734;28;1458;-57
2023/04/30 08:22:01;;;;;;;;;;;;;;;19.99;49.92;95025.75;5093757;28;1072;-57
2023/04/30 08:24:27;;;;;;;;;;;;;;;19.42;49.65;95038.47;5093290;28;1108;-57
2023/04/30 08:26:54;;;;;;;;;;;;;;;18.96;50.85;95029.56;5093499;28;1051;-57
2023/04/30 08:29:20;;;;;;;;;;;;;;;19.01;51.30;95027.06;5092997;28;1976;-56
2023/04/30 08:31:46;;;;;;;;;;;;;;;18.84;52.10;95020.50;5091024;28;2202;-57
2023/04/30 08:34:12;;;;;;;;;;;;;;;18.78;51.86;95021.28;5092195;28;2840;-57
2023/04/30 08:36:38;;;;;;;;;;;;;;;18.65;51.41;95023.03;5093513;28;1040;-56
2023/04/30 08:39:04;;;;;;;;;;;;;;;19.04;49.68;95026.59;5093039;28;1194;-57
2023/04/30 08:41:31;;;;;;;;;;;;;;;20.39;46.67;95025.34;5093556;28;1028;-57
2023/04/30 08:44:00;;;;;;;;;;;;;;;20.33;45.94;95025.44;5093333;28;974;-56
2023/04/30 08:46:27;;;;;;;;;;;;;;;20.09;44.34;95031.50;5093045;28;1073;-57
2023/04/30 08:48:54;;;;;;;;;;;;;;;19.87;46.32;95024.81;5093194;28;1914;-56
2023/04/30 08:51:20;;;;;;;;;;;;;;;19.82;45.90;95028.19;5093202;28;1120;-57
2023/04/30 08:53:49;;;;;;;;;;;;;;;19.81;46.27;95020.28;5097647;28;970;-57
2023/04/30 08:56:15;;;;;;;;;;;;;;;19.57;47.18;95013.75;5097608;28;933;-56
2023/04/30 08:58:42;;;;;;;;;;;;;;;19.28;48.23;95016.88;5097054;28;1279;-57
2023/04/30 09:01:08;;;;;;;;;;;;;;;19.39;48.17;95012.66;5097044;28;1682;-57
2023/04/30 09:03:35;;;;;;;;;;;;;;;19.41;47.02;95018.69;5096892;28;1230;-57
2023/04/30 09:06:01;;;;;;;;;;;;;;;19.16;47.25;95024.06;5097150;28;1650;-57
2023/04/30 09:08:47;;;;;;;;;;;;;;;19.13;48.56;95020.94;5096844;28;1996;-59
2023/04/30 09:11:22;;;;;;;;;;;;;;;19.39;48.58;95022.63;5097048;28;1084;-57
2023/04/30 09:13:54;;;;;;;;;;;;;;;19.40;47.98;95029.72;5097192;28;1555;-57
2023/04/30 09:16:20;;;;;;;;;;;;;;;19.17;49.71;95020.28;5089730;28;2967;-57
2023/04/30 09:18:48;;;;;;;;;;;;;;;19.13;49.86;95018.25;5076725;28;1008;-57
2023/04/30 09:21:14;;;;;;;;;;;;;;;19.22;51.25;95011.53;5095814;28;1168;-57
2023/04/30 09:23:53;;;;;;;;;;;;;;;19.23;52.91;95003.16;5096824;28;1033;-57
2023/04/30 09:26:27;;;;;;;;;;;;;;;19.19;51.12;95001.94;5094689;28;1396;-56
2023/04/30 09:28:56;;;;;;;;;;;;;;;19.09;52.11;95001.59;5097008;28;1996;-56
2023/04/30 09:31:23;;;;;;;;;;;;;;;19.09;51.74;94997.00;5096457;28;1031;-57
2023/04/30 09:33:49;;;;;;;;;;;;;;;19.36;50.24;95002.22;5095093;28;1049;-57
2023/04/30 09:36:15;;;;;;;;;;;;;;;19.54;50.58;95006.06;5095850;28;1033;-56
2023/04/30 09:38:41;;;;;;;;;;;;;;;19.86;49.24;95009.56;5096402;28;1136;-56
2023/04/30 09:41:20;;;;;;;;;;;;;;;19.76;47.83;95006.56;5096490;28;1037;-54
2023/04/30 09:43:46;;;;;;;;;;;;;;;19.47;47.91;94998.81;5096390;28;1027;-54
2023/04/30 09:46:12;;;;;;;;;;;;;;;19.36;47.59;94996.81;5096222;28;1035;-54
2023/04/30 09:48:40;;;;;;;;;;;;;;;19.20;48.32;94997.31;5093342;28;2639;-55
2023/04/30 09:51:06;;;;;;;;;;;;;;;18.94;48.51;94996.47;5076072;28;980;-53
2023/04/30 09:53:32;;;;;;;;;;;;;;;18.78;48.78;95003.19;5076089;28;1048;-54
2023/04/30 09:56:00;;;;;;;;;;;;;;;18.41;51.47;95011.03;5081173;28;1150;-55
2023/04/30 09:58:27;;;;;;;;;;;;;;;17.99;54.73;95010.50;5076634;28;1255;-56
2023/04/30 10:00:54;;;;;;;;;;;;;;;17.71;57.68;95025.06;5075701;28;1028;-54
2023/04/30 10:03:21;;;;;;;;;;;;;;;17.43;59.58;95035.22;5074607;28;964;-55
2023/04/30 10:05:47;;;;;;;;;;;;;;;16.96;60.52;95029.75;5079459;28;1114;-54
2023/04/30 10:08:37;;;;;;;;;;;;;;;16.53;64.06;95025.41;5095932;28;2024;-54
2023/04/30 10:11:04;;;;;;;;;;;;;;;16.60;66.02;95028.16;5089774;28;1150;-54
2023/04/30 10:13:31;;;;;;;;;;;;;;;16.70;63.83;95028.59;5095747;28;1637;-55
2023/04/30 10:15:58;;;;;;;;;;;;;;;16.63;63.83;95025.03;5095732;28;1226;-54
2023/04/30 10:18:30;;;;;;;;;;;;;;;16.68;61.65;95021.75;5096132;28;1061;-55
2023/04/30 10:20:57;;;;;;;;;;;;;;;16.95;63.38;95026.22;5095778;28;925;-55
2023/04/30 10:23:23;;;;;;;;;;;;;;;16.92;60.77;95005.03;5095656;28;1053;-55
2023/04/30 10:25:50;;;;;;;;;;;;;;;16.76;57.96;94994.56;5095486;28;1000;-55
2023/04/30 10:28:16;;;;;;;;;;;;;;;16.78;60.12;94997.88;5095559;28;1996;-55
2023/04/30 10:30:42;;;;;;;;;;;;;;;17.09;60.52;95002.78;5095422;28;1057;-55
2023/04/30 10:33:18;;;;;;;;;;;;;;;17.55;57.61;95001.16;5095491;28;1119;-55
2023/04/30 10:35:48;;;;;;;;;;;;;;;17.85;55.32;95001.59;5095767;28;1020;-54
2023/04/30 10:38:17;;;;;;;;;;;;;;;18.16;54.64;95004.66;5095922;28;954;-55
2023/04/30 10:40:49;;;;;;;;;;;;;;;18.37;56.01;94988.13;5095448;28;1613;-55
2023/04/30 10:43:19;;;;;;;;;;;;;;;18.58;53.93;94995.13;5093013;28;1357;-55
2023/04/30 10:45:47;;;;;;;;;;;;;;;18.68;52.95;94989.25;5095348;28;1169;-55
2023/04/30 10:48:14;;;;;;;;;;;;;;;18.70;50.44;94979.03;5094232;28;1996;-55
2023/04/30 10:50:41;;;;;;;;;;;;;;;18.94;51.80;94982.91;5095312;28;1004;-55
2023/04/30 10:53:11;;;;;;;;;;;;;;;18.98;47.86;94983.31;5095010;28;1072;-55
2023/04/30 10:55:44;;;;;;;;;;;;;;;19.18;48.17;94975.91;5094657;28;1324;-55
2023/04/30 10:58:23;;;;;;;;;;;;;;;19.36;48.17;94968.88;5093912;28;1040;-56
2023/04/30 11:00:50;;;;;;;;;;;;;;;19.93;48.24;94969.66;5094982;28;1084;-55
2023/04/30 11:03:16;;;;;;;;;;;;;;;20.26;44.61;94972.03;5093935;28;1115;-55
2023/04/30 11:05:42;;;;;;;;;;;;;;;20.72;47.31;94958.16;5094626;28;1154;-56
2023/04/30 11:08:11;;;;;;;;;;;;;;;20.90;46.08;94960.00;5094309;28;1984;-56
2023/04/30 11:10:55;;;;;;;;;;;;;;;21.16;45.19;94959.63;5094479;28;1039;-56
2023/04/30 11:13:21;;;;;;;;;;;;;;;21.11;44.30;94956.75;5094861;28;1623;-56
2023/04/30 11:15:47;;;;;;;;;;;;;;;20.97;45.36;94949.88;5094284;28;1179;-56
2023/04/30 11:18:13;;;;;;;;;;;;;;;21.21;45.63;94948.88;5094668;28;1112;-56
2023/04/30 11:20:43;;;;;;;;;;;;;;;21.30;44.88;94946.63;5094453;28;1242;-56
2023/04/30 11:23:09;;;;;;;;;;;;;;;21.34;45.80;94950.56;5094478;28;1027;-56
2023/04/30 11:25:39;;;;;;;;;;;;;;;21.50;44.48;94954.53;5094663;28;961;-56
2023/04/30 11:28:06;;;;;;;;;;;;;;;21.67;44.00;94949.22;5094587;28;1992;-56
2023/04/30 11:30:33;;;;;;;;;;;;;;;21.49;45.26;94952.03;5094204;28;1178;-56
2023/04/30 11:33:00;;;;;;;;;;;;;;;21.60;43.73;94954.78;5094494;28;1050;-56
2023/04/30 11:35:27;;;;;;;;;;;;;;;21.73;43.79;94947.47;5094303;28;993;-56
2023/04/30 11:37:54;;;;;;;;;;;;;;;22.00;44.29;94950.53;5094506;28;964;-56
2023/04/30 11:40:21;;;;;;;;;;;;;;;21.90;42.95;94945.69;5092744;28;1051;-56
2023/04/30 11:42:47;;;;;;;;;;;;;;;21.82;43.52;94946.88;5093192;28;1068;-56
2023/04/30 11:45:16;;;;;;;;;;;;;;;21.59;42.54;94938.72;5093673;28;1198;-56
2023/04/30 11:47:46;;;;;;;;;;;;;;;21.02;42.71;94941.88;5073651;28;1910;-56
2023/04/30 11:50:13;;;;;;;;;;;;;;;20.93;42.53;94926.94;5073781;28;1044;-56
2023/04/30 11:52:40;;;;;;;;;;;;;;;21.19;44.32;94923.81;5073916;28;1081;-55
2023/04/30 11:55:13;;;;;;;;;;;;;;;21.13;43.93;94921.19;5073764;28;1057;-56
2023/04/30 11:57:40;;;;;;;;;;;;;;;21.38;44.01;94915.56;5093210;28;1205;-56
2023/04/30 12:00:08;;;;;;;;;;;;;;;21.57;42.94;94916.31;5094014;28;1044;-56
2023/04/30 12:02:35;;;;;;;;;;;;;;;21.61;42.09;94920.25;5093913;28;1128;-56
2023/04/30 12:05:01;;;;;;;;;;;;;;;21.48;43.43;94907.69;5093735;28;1024;-56
2023/04/30 12:07:27;;;;;;;;;;;;;;;21.67;42.89;94902.97;5093366;28;1905;-56
2023/04/30 12:09:53;;;;;;;;;;;;;;;21.99;42.06;94914.31;5093776;28;1054;-56
2023/04/30 12:12:26;;;;;;;;;;;;;;;21.62;40.89;94900.94;5093683;28;1026;-55
2023/04/30 12:14:52;;;;;;;;;;;;;;;21.66;42.59;94903.22;5093589;28;1597;-55
2023/04/30 12:17:32;;;;;;;;;;;;;;;21.49;40.71;94903.91;5093222;28;1088;-56
2023/04/30 12:19:58;;;;;;;;;;;;;;;21.39;42.54;94900.91;5093847;28;1013;-56
2023/04/30 12:22:24;;;;;;;;;;;;;;;21.05;42.85;94896.00;5093689;28;1134;-55
2023/04/30 12:24:50;;;;;;;;;;;;;;;20.74;43.71;94890.84;5093782;28;1047;-55
2023/04/30 12:27:17;;;;;;;;;;;;;;;20.52;43.81;94896.72;5092726;28;1086;-56
2023/04/30 12:29:47;;;;;;;;;;;;;;;20.60;44.92;94890.19;5093542;28;1036;-55
2023/04/30 12:32:15;;;;;;;;;;;;;;;20.60;44.43;94892.91;5093474;28;1044;-55
2023/04/30 12:34:41;;;;;;;;;;;;;;;20.71;43.93;94885.88;5093644;28;1015;-55
2023/04/30 12:37:07;;;;;;;;;;;;;;;20.68;43.72;94884.44;5093127;28;1125;-56
2023/04/30 12:39:34;;;;;;;;;;;;;;;21.28;43.35;94883.50;5093329;28;1329;-57
2023/04/30 12:42:00;;;;;;;;;;;;;;;21.47;40.11;94880.72;5093368;28;1104;-56
2023/04/30 12:44:27;;;;;;;;;;;;;;;21.29;42.24;94873.50;5093230;28;1106;-56
2023/04/30 12:46:59;;;;;;;;;;;;;;;21.16;42.46;94869.09;5093082;28;1171;-56
2023/04/30 12:49:26;;;;;;;;;;;;;;;21.30;42.00;94869.69;5093182;28;1975;-56
2023/04/30 12:51:57;;;;;;;;;;;;;;;21.30;40.88;94867.78;5093478;28;1060;-56
2023/04/30 12:54:24;;;;;;;;;;;;;;;21.26;40.43;94864.72;5092177;28;969;-56
2023/04/30 12:57:00;;;;;;;;;;;;;;;21.56;40.60;94855.66;5093142;28;1031;-56
2023/04/30 12:59:27;;;;;;;;;;;;;;;21.47;40.46;94853.53;5093188;28;1100;-56
2023/04/30 13:01:53;;;;;;;;;;;;;;;21.02;39.71;94849.47;5093171;28;1140;-55
2023/04/30 13:04:20;;;;;;;;;;;;;;;20.89;40.66;94839.63;5093316;28;993;-56
2023/04/30 13:06:46;;;;;;;;;;;;;;;20.72;39.72;94846.78;5092887;28;1049;-56